Herbert J Plaisance — WDE6917 — position and weather

sailwx.info

Track history (hours):
 
Tides and Currents Weather Stations Pressure Air Temp Water Temp Dewpoint Dewpoint Depression Visibility Wind Speed Wind Dir Waves Ship Positions

Herbert J Plaisance

Owner: S & B Marine LLC, Harvey, LA. More information available from US FCC via Universal Licensing System and Coast Guard Vessel Documentation Center.

Last reported at 2017-Dec-09 13:10 UTC. Time now 2017-Dec-14 00:43 UTC.
Position N 29°59' W 092°08'.

Length 20 m; draft 3 m.

Type: Towing. MMSI: 367386576.

Date/timePositionNaut miles runAvg speedWind from/ knotsBaromVisibWave heightAir tempDewpointWater temp
2017-Dec-09 13:10N 29°59' W 092°08'2 2.1
2017-Dec-09 12:23N 29°58' W 092°10'1 0.8
2017-Dec-09 11:11N 29°57' W 092°09'0 0.0
2017-Dec-09 10:56N 29°57' W 092°09'0 0.9
2017-Dec-09 10:30N 29°57' W 092°09'6 0.3
2017-Dec-08 15:14N 29°51' W 092°07'0 2.0
2017-Dec-08 15:00N 29°51' W 092°08'1 1.9
2017-Dec-08 14:30N 29°50' W 092°08'1 1.9
2017-Dec-08 14:00N 29°49' W 092°08'0 0.0
2017-Dec-08 13:30N 29°49' W 092°08'0 0.0
2017-Dec-08 13:00N 29°49' W 092°08'0 0.0
2017-Dec-08 12:30N 29°49' W 092°08'0 0.0
2017-Dec-08 12:00N 29°49' W 092°08'0 0.0
2017-Dec-08 11:30N 29°49' W 092°08'0 0.0
2017-Dec-08 11:00N 29°49' W 092°08'0 0.0
2017-Dec-08 10:30N 29°49' W 092°08'0 0.0
2017-Dec-08 10:00N 29°49' W 092°08'0 0.0
2017-Dec-08 09:30N 29°49' W 092°08'0 0.0
2017-Dec-08 09:00N 29°49' W 092°08'0 0.0
2017-Dec-08 08:30N 29°49' W 092°08'0 0.0
2017-Dec-08 08:00N 29°49' W 092°08'0 0.0
2017-Dec-08 07:30N 29°49' W 092°08'0 0.0
2017-Dec-08 07:00N 29°49' W 092°08'0 0.0
2017-Dec-08 06:30N 29°49' W 092°08'0 0.0
2017-Dec-08 06:00N 29°49' W 092°08'0 0.0
2017-Dec-08 05:30N 29°49' W 092°08'0 0.0
2017-Dec-08 05:00N 29°49' W 092°08'0 0.0
2017-Dec-08 04:30N 29°49' W 092°08'0 0.0
2017-Dec-08 04:00N 29°49' W 092°08'0 0.0
2017-Dec-08 03:30N 29°49' W 092°08'0 0.0
2017-Dec-08 03:00N 29°49' W 092°08'0 0.0
2017-Dec-08 02:30N 29°49' W 092°08'0 0.0
2017-Dec-08 02:00N 29°49' W 092°08'0 0.0
2017-Dec-08 01:30N 29°49' W 092°08'1 2.3
2017-Dec-08 01:00N 29°50' W 092°08'1 0.1
2017-Dec-07 16:22N 29°51' W 092°08'1 1.5
2017-Dec-07 16:00N 29°50' W 092°08'1 1.2
2017-Dec-07 15:30N 29°50' W 092°08'1 1.6
2017-Dec-07 15:00N 29°49' W 092°08'1 1.6
2017-Dec-07 14:30N 29°50' W 092°08'2 0.2
2017-Dec-07 06:18N 29°51' W 092°07'1 2.0
2017-Dec-07 06:00N 29°51' W 092°08'1 1.4
2017-Dec-07 05:30N 29°50' W 092°08'1 2.0
2017-Dec-07 05:00N 29°49' W 092°08'0 0.3
2017-Dec-07 04:30N 29°49' W 092°08'0 0.1
2017-Dec-07 04:00N 29°49' W 092°08'0 0.5
2017-Dec-07 03:30N 29°49' W 092°08'1 1.1
2017-Dec-07 03:00N 29°48' W 092°08'0 0.9
2017-Dec-07 02:30N 29°48' W 092°08'1 1.1
2017-Dec-07 02:01N 29°47' W 092°09'1 1.9
2017-Dec-07 01:30N 29°47' W 092°08'4 2.8
2017-Dec-07 00:06N 29°49' W 092°03'0 2.7
2017-Dec-07 00:00N 29°49' W 092°03'  
2017-Nov-30 17:17N 29°49' W 092°02'3 5.7
2017-Nov-30 16:44N 29°48' W 092°05'1 5.7
2017-Nov-30 16:30N 29°48' W 092°07'3 5.1
2017-Nov-30 16:00N 29°47' W 092°09'1 2.5
2017-Nov-30 15:30N 29°47' W 092°11'0 0.1
2017-Nov-30 15:00N 29°47' W 092°11'0 0.0
2017-Nov-30 14:30N 29°47' W 092°11'0 0.0
2017-Nov-30 14:00N 29°47' W 092°11'0 0.0
2017-Nov-30 13:30N 29°47' W 092°11'0 0.0
2017-Nov-30 13:00N 29°47' W 092°11'0 0.0
2017-Nov-30 12:30N 29°47' W 092°11'0 0.0
2017-Nov-30 12:00N 29°47' W 092°11'0 0.0
2017-Nov-30 11:30N 29°47' W 092°11'0 0.0
2017-Nov-30 11:00N 29°47' W 092°11'0 0.0
2017-Nov-30 10:30N 29°47' W 092°11'0 0.0
2017-Nov-30 10:00N 29°47' W 092°11'0 0.0
2017-Nov-30 09:30N 29°47' W 092°11'0 0.0
2017-Nov-30 09:00N 29°47' W 092°11'0 0.0
2017-Nov-30 08:30N 29°47' W 092°11'0 0.0
2017-Nov-30 08:00N 29°47' W 092°11'0 0.0
2017-Nov-30 07:30N 29°47' W 092°11'0 0.0
2017-Nov-30 07:00N 29°47' W 092°11'0 0.0
2017-Nov-30 06:30N 29°47' W 092°11'0 0.0
2017-Nov-30 06:00N 29°47' W 092°11'0 0.0
2017-Nov-30 05:30N 29°47' W 092°11'0 0.0
2017-Nov-30 05:00N 29°47' W 092°11'0 0.0
2017-Nov-30 04:30N 29°47' W 092°11'0 0.0
2017-Nov-30 04:00N 29°47' W 092°11'0 0.0
2017-Nov-30 03:30N 29°47' W 092°11'0 0.0
2017-Nov-30 03:00N 29°47' W 092°11'0 0.0
2017-Nov-30 02:30N 29°47' W 092°11'0 0.0
2017-Nov-30 02:00N 29°47' W 092°11'0 0.0
2017-Nov-30 01:30N 29°47' W 092°11'0 0.0
2017-Nov-30 01:00N 29°47' W 092°11'1 1.4
2017-Nov-30 00:30N 29°47' W 092°12'2 3.1
2017-Nov-30 00:00N 29°48' W 092°13'0 0.8
2017-Nov-29 23:30N 29°48' W 092°14'0 0.0
2017-Nov-29 23:00N 29°48' W 092°14'0 0.0
2017-Nov-29 22:30N 29°48' W 092°14'1 1.2
2017-Nov-29 22:00N 29°48' W 092°14'1 2.6
2017-Nov-29 21:30N 29°48' W 092°16'  
Track history (hours):
 
Tides and Currents Weather Stations Pressure Air Temp Water Temp Dewpoint Dewpoint Depression Visibility Wind Speed Wind Dir Waves Ship Positions

Herbert J Plaisance

Owner: S & B Marine LLC, Harvey, LA. More information available from US FCC via Universal Licensing System and Coast Guard Vessel Documentation Center.

Last reported at 2017-Dec-09 13:10 UTC. Time now 2017-Dec-14 00:43 UTC.
Position N 29°59' W 092°08'.

Length 20 m; draft 3 m.

Type: Towing. MMSI: 367386576.

Date/timePositionNaut miles runAvg speedWind from/ knotsBaromVisibWave heightAir tempDewpointWater temp
2017-Dec-09 13:10N 29°59' W 092°08'2 2.1
2017-Dec-09 12:23N 29°58' W 092°10'1 0.8
2017-Dec-09 11:11N 29°57' W 092°09'0 0.0
2017-Dec-09 10:56N 29°57' W 092°09'0 0.9
2017-Dec-09 10:30N 29°57' W 092°09'6 0.3
2017-Dec-08 15:14N 29°51' W 092°07'0 2.0
2017-Dec-08 15:00N 29°51' W 092°08'1 1.9
2017-Dec-08 14:30N 29°50' W 092°08'1 1.9
2017-Dec-08 14:00N 29°49' W 092°08'0 0.0
2017-Dec-08 13:30N 29°49' W 092°08'0 0.0
2017-Dec-08 13:00N 29°49' W 092°08'0 0.0
2017-Dec-08 12:30N 29°49' W 092°08'0 0.0
2017-Dec-08 12:00N 29°49' W 092°08'0 0.0
2017-Dec-08 11:30N 29°49' W 092°08'0 0.0
2017-Dec-08 11:00N 29°49' W 092°08'0 0.0
2017-Dec-08 10:30N 29°49' W 092°08'0 0.0
2017-Dec-08 10:00N 29°49' W 092°08'0 0.0
2017-Dec-08 09:30N 29°49' W 092°08'0 0.0
2017-Dec-08 09:00N 29°49' W 092°08'0 0.0
2017-Dec-08 08:30N 29°49' W 092°08'0 0.0
2017-Dec-08 08:00N 29°49' W 092°08'0 0.0
2017-Dec-08 07:30N 29°49' W 092°08'0 0.0
2017-Dec-08 07:00N 29°49' W 092°08'0 0.0
2017-Dec-08 06:30N 29°49' W 092°08'0 0.0
2017-Dec-08 06:00N 29°49' W 092°08'0 0.0
2017-Dec-08 05:30N 29°49' W 092°08'0 0.0
2017-Dec-08 05:00N 29°49' W 092°08'0 0.0
2017-Dec-08 04:30N 29°49' W 092°08'0 0.0
2017-Dec-08 04:00N 29°49' W 092°08'0 0.0
2017-Dec-08 03:30N 29°49' W 092°08'0 0.0
2017-Dec-08 03:00N 29°49' W 092°08'0 0.0
2017-Dec-08 02:30N 29°49' W 092°08'0 0.0
2017-Dec-08 02:00N 29°49' W 092°08'0 0.0
2017-Dec-08 01:30N 29°49' W 092°08'1 2.3
2017-Dec-08 01:00N 29°50' W 092°08'1 0.1
2017-Dec-07 16:22N 29°51' W 092°08'1 1.5
2017-Dec-07 16:00N 29°50' W 092°08'1 1.2
2017-Dec-07 15:30N 29°50' W 092°08'1 1.6
2017-Dec-07 15:00N 29°49' W 092°08'1 1.6
2017-Dec-07 14:30N 29°50' W 092°08'2 0.2
2017-Dec-07 06:18N 29°51' W 092°07'1 2.0
2017-Dec-07 06:00N 29°51' W 092°08'1 1.4
2017-Dec-07 05:30N 29°50' W 092°08'1 2.0
2017-Dec-07 05:00N 29°49' W 092°08'0 0.3
2017-Dec-07 04:30N 29°49' W 092°08'0 0.1
2017-Dec-07 04:00N 29°49' W 092°08'0 0.5
2017-Dec-07 03:30N 29°49' W 092°08'1 1.1
2017-Dec-07 03:00N 29°48' W 092°08'0 0.9
2017-Dec-07 02:30N 29°48' W 092°08'1 1.1
2017-Dec-07 02:01N 29°47' W 092°09'1 1.9
2017-Dec-07 01:30N 29°47' W 092°08'4 2.8
2017-Dec-07 00:06N 29°49' W 092°03'0 2.7
2017-Dec-07 00:00N 29°49' W 092°03'  
2017-Nov-30 17:17N 29°49' W 092°02'3 5.7
2017-Nov-30 16:44N 29°48' W 092°05'1 5.7
2017-Nov-30 16:30N 29°48' W 092°07'3 5.1
2017-Nov-30 16:00N 29°47' W 092°09'1 2.5
2017-Nov-30 15:30N 29°47' W 092°11'0 0.1
2017-Nov-30 15:00N 29°47' W 092°11'0 0.0
2017-Nov-30 14:30N 29°47' W 092°11'0 0.0
2017-Nov-30 14:00N 29°47' W 092°11'0 0.0
2017-Nov-30 13:30N 29°47' W 092°11'0 0.0
2017-Nov-30 13:00N 29°47' W 092°11'0 0.0
2017-Nov-30 12:30N 29°47' W 092°11'0 0.0
2017-Nov-30 12:00N 29°47' W 092°11'0 0.0
2017-Nov-30 11:30N 29°47' W 092°11'0 0.0
2017-Nov-30 11:00N 29°47' W 092°11'0 0.0
2017-Nov-30 10:30N 29°47' W 092°11'0 0.0
2017-Nov-30 10:00N 29°47' W 092°11'0 0.0
2017-Nov-30 09:30N 29°47' W 092°11'0 0.0
2017-Nov-30 09:00N 29°47' W 092°11'0 0.0
2017-Nov-30 08:30N 29°47' W 092°11'0 0.0
2017-Nov-30 08:00N 29°47' W 092°11'0 0.0
2017-Nov-30 07:30N 29°47' W 092°11'0 0.0
2017-Nov-30 07:00N 29°47' W 092°11'0 0.0
2017-Nov-30 06:30N 29°47' W 092°11'0 0.0
2017-Nov-30 06:00N 29°47' W 092°11'0 0.0
2017-Nov-30 05:30N 29°47' W 092°11'0 0.0
2017-Nov-30 05:00N 29°47' W 092°11'0 0.0
2017-Nov-30 04:30N 29°47' W 092°11'0 0.0
2017-Nov-30 04:00N 29°47' W 092°11'0 0.0
2017-Nov-30 03:30N 29°47' W 092°11'0 0.0
2017-Nov-30 03:00N 29°47' W 092°11'0 0.0
2017-Nov-30 02:30N 29°47' W 092°11'0 0.0
2017-Nov-30 02:00N 29°47' W 092°11'0 0.0
2017-Nov-30 01:30N 29°47' W 092°11'0 0.0
2017-Nov-30 01:00N 29°47' W 092°11'1 1.4
2017-Nov-30 00:30N 29°47' W 092°12'2 3.1
2017-Nov-30 00:00N 29°48' W 092°13'0 0.8
2017-Nov-29 23:30N 29°48' W 092°14'0 0.0
2017-Nov-29 23:00N 29°48' W 092°14'0 0.0
2017-Nov-29 22:30N 29°48' W 092°14'1 1.2
2017-Nov-29 22:00N 29°48' W 092°14'1 2.6
2017-Nov-29 21:30N 29°48' W 092°16'  

Dump ship's entire track history